createdAt,value
2019-04-06T00:01:38.488Z,7.91
2019-04-06T00:06:47.369Z,8.61
2019-04-06T00:11:56.351Z,8.79
2019-04-06T00:17:05.232Z,10.55
2019-04-06T00:22:14.205Z,9.87
2019-04-06T00:27:24.651Z,10.71
2019-04-06T00:32:31.611Z,12.68
2019-04-06T00:37:40.907Z,12.33
2019-04-06T00:42:49.890Z,12.90
2019-04-06T00:47:58.791Z,14.85
2019-04-06T00:53:07.781Z,16.30
2019-04-06T00:58:16.652Z,18.06
2019-04-06T01:03:25.706Z,19.66
2019-04-06T01:08:34.569Z,20.05
2019-04-06T01:13:43.558Z,20.39
2019-04-06T01:18:52.435Z,21.75
2019-04-06T01:23:59.924Z,21.76
2019-04-06T01:29:08.861Z,23.36
2019-04-06T01:34:17.968Z,25.20
2019-04-06T01:39:26.876Z,25.56
2019-04-06T01:44:35.862Z,24.39
2019-04-06T01:49:44.729Z,26.43
2019-04-06T01:54:53.676Z,26.56
2019-04-06T02:00:02.561Z,27.29
2019-04-06T02:05:11.525Z,29.63
2019-04-06T02:10:20.414Z,28.22
2019-04-06T02:15:29.384Z,27.75
2019-04-06T02:20:38.214Z,28.91
2019-04-06T02:25:47.216Z,29.92
2019-04-06T02:30:56.080Z,31.57
2019-04-06T02:36:05.165Z,32.07
2019-04-06T02:41:13.971Z,34.24
2019-04-06T02:46:22.948Z,34.94
2019-04-06T02:51:31.893Z,34.71
2019-04-06T02:56:46.293Z,36.19
2019-04-06T03:01:49.261Z,34.70
2019-04-06T03:06:58.232Z,36.98
2019-04-06T03:12:07.261Z,34.14
2019-04-06T03:17:16.221Z,35.04
2019-04-06T03:22:25.121Z,35.21
2019-04-06T03:27:34.084Z,32.89
2019-04-06T03:32:42.995Z,34.47
2019-04-06T03:37:52.004Z,33.23
2019-04-06T03:43:00.870Z,33.28
2019-04-06T03:48:09.796Z,31.73
2019-04-06T03:53:18.664Z,33.47
2019-04-06T03:58:27.667Z,32.22
2019-04-06T04:03:36.510Z,32.03
2019-04-06T04:08:45.524Z,34.48
2019-04-06T04:13:53.166Z,33.18
2019-04-06T04:19:01.813Z,34.13
2019-04-06T04:24:10.734Z,30.38
2019-04-06T04:29:19.698Z,32.20
2019-04-06T04:34:28.626Z,30.89
2019-04-06T04:39:37.547Z,30.83
2019-04-06T04:44:46.367Z,29.67
2019-04-06T04:49:55.310Z,31.25
2019-04-06T04:55:04.255Z,31.25
2019-04-06T05:00:13.182Z,29.86
2019-04-06T05:05:22.115Z,30.02
2019-04-06T05:10:31.143Z,27.59
2019-04-06T05:15:40.033Z,30.42
2019-04-06T05:20:49.098Z,29.72
2019-04-06T05:25:57.784Z,27.68
2019-04-06T05:31:06.716Z,26.81
2019-04-06T05:36:15.670Z,27.38
2019-04-06T05:41:24.963Z,28.05
2019-04-06T05:46:33.851Z,29.11
2019-04-06T05:51:42.863Z,30.10
2019-04-06T05:56:51.888Z,29.16
2019-04-06T06:02:00.827Z,29.16
2019-04-06T06:07:09.701Z,31.22
2019-04-06T06:12:18.613Z,27.46
2019-04-06T06:17:27.521Z,30.09
2019-04-06T06:22:36.451Z,30.79
2019-04-06T06:27:45.335Z,29.94
2019-04-06T06:32:52.791Z,27.77
2019-04-06T06:38:01.652Z,28.64
2019-04-06T06:43:11.268Z,28.47
2019-04-06T06:48:20.334Z,29.19
2019-04-06T06:53:30.016Z,30.09
2019-04-06T06:58:39.030Z,30.67
2019-04-06T07:03:48.279Z,28.48
2019-04-06T07:08:57.890Z,29.22
2019-04-06T07:14:07.384Z,29.46
2019-04-06T07:19:17.535Z,29.41
2019-04-06T07:24:19.557Z,27.43
2019-04-06T07:29:18.174Z,27.03
2019-04-06T07:34:27.152Z,26.02
2019-04-06T07:39:36.025Z,27.26
2019-04-06T07:44:45.059Z,26.60
2019-04-06T07:49:53.928Z,23.03
2019-04-06T07:55:02.846Z,23.53
2019-04-06T08:00:11.744Z,25.69
2019-04-06T08:05:20.646Z,23.15
2019-04-06T08:10:29.527Z,24.11
2019-04-06T08:15:38.756Z,24.17
2019-04-06T08:20:47.505Z,22.92
2019-04-06T08:25:56.439Z,25.35
2019-04-06T08:31:05.389Z,25.54
2019-04-06T08:36:14.287Z,21.74
2019-04-06T08:41:23.182Z,22.61
2019-04-06T08:46:32.211Z,20.62
2019-04-06T08:51:43.024Z,21.16
2019-04-06T08:56:42.083Z,20.62
2019-04-06T09:01:50.901Z,21.35
2019-04-06T09:06:59.882Z,21.34
2019-04-06T09:12:08.823Z,21.11
2019-04-06T09:17:17.776Z,21.50
2019-04-06T09:22:38.795Z,19.50
2019-04-06T09:27:27.771Z,22.27
2019-04-06T09:32:37.060Z,20.17
2019-04-06T09:37:46.051Z,18.69
2019-04-06T09:42:55.123Z,18.21
2019-04-06T09:48:04.322Z,18.60
2019-04-06T09:53:13.034Z,18.93
2019-04-06T09:58:22.201Z,18.55
2019-04-06T10:03:30.876Z,17.67
2019-04-06T10:08:40.141Z,18.73
2019-04-06T10:13:49.084Z,17.83
2019-04-06T10:18:58.051Z,17.80
2019-04-06T10:24:06.971Z,18.90
2019-04-06T10:29:15.999Z,19.51
2019-04-06T10:34:24.879Z,24.38
2019-04-06T10:39:34.046Z,21.41
2019-04-06T10:44:42.723Z,21.28
2019-04-06T10:49:51.695Z,22.78
2019-04-06T10:55:00.569Z,22.56
2019-04-06T11:00:10.202Z,24.80
2019-04-06T11:05:19.074Z,26.41
2019-04-06T11:10:28.227Z,24.44
2019-04-06T11:15:35.645Z,23.74
2019-04-06T11:20:44.792Z,24.43
2019-04-06T11:25:53.566Z,27.01
2019-04-06T11:31:02.554Z,19.64
2019-04-06T11:36:11.443Z,28.00
2019-04-06T11:41:20.411Z,19.52
2019-04-06T11:46:29.305Z,26.74
2019-04-06T11:51:38.307Z,25.92
2019-04-06T11:56:47.526Z,16.54
2019-04-06T12:01:56.230Z,17.71
2019-04-06T12:07:05.026Z,19.60
2019-04-06T12:12:14.019Z,18.12
2019-04-06T12:17:23.211Z,22.60
2019-04-06T12:22:31.918Z,16.64
2019-04-06T12:27:41.214Z,14.86
2019-04-06T12:32:50.206Z,13.76
2019-04-06T12:37:59.296Z,14.19
2019-04-06T12:43:08.244Z,12.51
2019-04-06T12:48:18.311Z,14.74
2019-04-06T12:53:26.543Z,15.24
2019-04-06T12:58:35.489Z,14.40
2019-04-06T13:03:42.968Z,11.03
2019-04-06T13:08:52.064Z,13.92
2019-04-06T13:14:01.013Z,15.45
2019-04-06T13:19:10.325Z,12.38
2019-04-06T13:24:18.783Z,16.81
2019-04-06T13:29:27.056Z,13.97
2019-04-06T13:34:36.921Z,12.64
2019-04-06T13:39:45.869Z,11.13
2019-04-06T13:44:54.972Z,11.34
2019-04-06T13:50:04.092Z,11.66
2019-04-06T13:55:13.267Z,9.19
2019-04-06T14:00:21.282Z,9.84
2019-04-06T14:05:30.289Z,8.34
2019-04-06T14:10:39.225Z,8.68
2019-04-06T14:15:48.259Z,6.95
2019-04-06T14:20:57.220Z,5.83
2019-04-06T14:26:06.463Z,5.57
2019-04-06T14:31:25.723Z,5.14
2019-04-06T14:36:23.828Z,4.72
2019-04-06T14:41:32.798Z,4.41
2019-04-06T14:46:41.903Z,6.64
2019-04-06T14:51:50.839Z,6.05
2019-04-06T14:57:00.216Z,5.37
2019-04-06T15:02:08.557Z,5.07
2019-04-06T15:07:17.336Z,5.11
2019-04-06T15:12:26.660Z,5.62
2019-04-06T15:17:35.469Z,5.08
2019-04-06T15:22:44.361Z,4.91
2019-04-06T15:27:53.453Z,5.10
2019-04-06T15:33:02.399Z,4.64
2019-04-06T15:38:12.814Z,5.75
2019-04-06T15:43:11.631Z,4.55
2019-04-06T15:48:20.647Z,5.05
2019-04-06T15:53:29.604Z,4.26
2019-04-06T15:58:38.599Z,4.21
2019-04-06T16:03:47.642Z,4.82
2019-04-06T16:08:56.954Z,4.78
2019-04-06T16:14:05.142Z,3.79
2019-04-06T16:19:14.150Z,4.38
2019-04-06T16:24:23.051Z,3.97
2019-04-06T16:29:32.077Z,4.07
2019-04-06T16:34:41.072Z,4.99
2019-04-06T16:39:50.068Z,4.37
2019-04-06T16:44:59.025Z,3.52
2019-04-06T16:50:08.223Z,5.78
2019-04-06T16:55:17.028Z,4.78
2019-04-06T17:00:26.432Z,4.70
2019-04-06T17:05:37.755Z,4.16
2019-04-06T17:10:37.064Z,5.14
2019-04-06T17:15:45.233Z,5.83
2019-04-06T17:20:54.352Z,3.92
2019-04-06T17:26:03.396Z,5.08
2019-04-06T17:31:12.355Z,5.12
2019-04-06T17:36:21.563Z,4.27
2019-04-06T17:41:30.532Z,5.06
2019-04-06T17:46:39.526Z,5.29
2019-04-06T17:51:48.524Z,6.16
2019-04-06T17:56:57.312Z,5.96
2019-04-06T18:02:06.505Z,5.10
2019-04-06T18:07:15.163Z,4.90
2019-04-06T18:12:25.370Z,5.74
2019-04-06T18:17:24.261Z,8.33
2019-04-06T18:22:33.521Z,5.27
2019-04-06T18:27:41.806Z,6.03
2019-04-06T18:32:59.636Z,4.81
2019-04-06T18:37:59.198Z,3.77
2019-04-06T18:43:07.874Z,4.78
2019-04-06T18:48:16.950Z,4.23
2019-04-06T18:53:25.646Z,4.08
2019-04-06T18:58:34.834Z,4.21
2019-04-06T19:03:43.742Z,4.12
2019-04-06T19:08:52.604Z,3.90
2019-04-06T19:14:01.490Z,3.94
2019-04-06T19:19:10.474Z,4.63
2019-04-06T19:24:19.478Z,3.97
2019-04-06T19:29:28.389Z,4.66
2019-04-06T19:34:38.355Z,5.96
2019-04-06T19:39:47.720Z,3.87
2019-04-06T19:44:55.757Z,4.68
2019-04-06T19:50:04.851Z,3.63
2019-04-06T19:55:13.817Z,3.60
2019-04-06T20:00:22.571Z,3.92
2019-04-06T20:05:31.641Z,4.31
2019-04-06T20:10:43.548Z,4.90
2019-04-06T20:15:42.695Z,5.63
2019-04-06T20:20:51.752Z,6.54
2019-04-06T20:26:00.611Z,6.38
2019-04-06T20:31:09.627Z,8.34
2019-04-06T20:36:18.564Z,7.11
2019-04-06T20:41:27.891Z,6.93
2019-04-06T20:46:36.596Z,6.57
2019-04-06T20:51:45.571Z,6.49
2019-04-06T20:56:57.508Z,5.69
2019-04-06T21:02:01.667Z,6.12
2019-04-06T21:07:11.127Z,4.93
2019-04-06T21:12:19.254Z,4.51
2019-04-06T21:17:28.074Z,5.04
2019-04-06T21:22:40.014Z,4.31
2019-04-06T21:27:39.393Z,3.16
2019-04-06T21:32:47.964Z,3.43
2019-04-06T21:37:56.156Z,3.88
2019-04-06T21:43:05.462Z,4.33
2019-04-06T21:48:13.254Z,3.44
2019-04-06T21:53:22.160Z,3.74
2019-04-06T21:58:32.446Z,3.91
2019-04-06T22:03:31.427Z,4.22
2019-04-06T22:08:39.519Z,5.30
2019-04-06T22:13:48.721Z,4.77
2019-04-06T22:18:56.804Z,5.13
2019-04-06T22:24:05.690Z,6.34
2019-04-06T22:29:14.770Z,5.36
2019-04-06T22:34:34.744Z,6.00
2019-04-06T22:39:32.606Z,6.53
2019-04-06T22:44:40.622Z,6.22
2019-04-06T22:49:49.827Z,7.45
2019-04-06T22:54:58.532Z,6.41
2019-04-06T23:00:07.402Z,6.73
2019-04-06T23:05:16.451Z,8.06
2019-04-06T23:10:25.941Z,9.05
2019-04-06T23:15:33.905Z,8.05
2019-04-06T23:20:42.851Z,7.57
2019-04-06T23:25:56.344Z,8.16
2019-04-06T23:30:55.728Z,7.98
2019-04-06T23:36:04.309Z,8.12
2019-04-06T23:41:13.714Z,8.20
2019-04-06T23:46:22.372Z,7.72
2019-04-06T23:51:31.428Z,7.67
2019-04-06T23:56:40.559Z,7.62
